createdAt,value
2022-07-31T00:00:23.048Z,2.00
2022-07-31T00:01:25.818Z,2.00
2022-07-31T00:02:28.594Z,2.21
2022-07-31T00:03:31.364Z,2.07
2022-07-31T00:04:34.035Z,2.06
2022-07-31T00:05:41.429Z,2.12
2022-07-31T00:06:41.234Z,1.94
2022-07-31T00:07:44.097Z,2.12
2022-07-31T00:08:47.176Z,2.02
2022-07-31T00:09:54.386Z,1.97
2022-07-31T00:10:54.560Z,1.94
2022-07-31T00:11:57.538Z,1.82
2022-07-31T00:13:00.516Z,1.73
2022-07-31T00:14:03.393Z,1.69
2022-07-31T00:15:06.168Z,1.79
2022-07-31T00:16:08.932Z,2.15
2022-07-31T00:17:11.808Z,2.12
2022-07-31T00:18:14.885Z,2.18
2022-07-31T00:19:17.967Z,2.04
2022-07-31T00:20:21.044Z,2.14
2022-07-31T00:21:24.231Z,2.01
2022-07-31T00:22:27.098Z,1.78
2022-07-31T00:23:30.284Z,1.87
2022-07-31T00:24:32.968Z,2.19
2022-07-31T00:25:36.137Z,1.94
2022-07-31T00:26:38.908Z,1.82
2022-07-31T00:27:41.574Z,1.62
2022-07-31T00:28:44.450Z,1.83
2022-07-31T00:29:47.530Z,1.78
2022-07-31T00:30:50.710Z,1.60
2022-07-31T00:31:53.685Z,1.72
2022-07-31T00:32:56.679Z,1.58
2022-07-31T00:33:59.845Z,1.62
2022-07-31T00:35:02.831Z,2.02
2022-07-31T00:36:05.903Z,1.81
2022-07-31T00:37:08.776Z,1.85
2022-07-31T00:38:27.788Z,1.50
2022-07-31T00:39:16.370Z,1.71
2022-07-31T00:40:19.456Z,1.68
2022-07-31T00:41:22.440Z,1.52
2022-07-31T00:42:25.408Z,1.54
2022-07-31T00:43:30.969Z,1.49
2022-07-31T00:44:32.701Z,1.57
2022-07-31T00:45:36.279Z,1.64
2022-07-31T00:46:40.598Z,1.84
2022-07-31T00:47:43.497Z,1.88
2022-07-31T00:48:46.427Z,1.54
2022-07-31T00:49:49.320Z,1.58
2022-07-31T00:50:52.291Z,1.67
2022-07-31T00:51:55.279Z,1.41
2022-07-31T00:52:58.361Z,1.97
2022-07-31T00:54:01.324Z,1.69
2022-07-31T00:55:04.523Z,1.73
2022-07-31T00:56:07.697Z,1.70
2022-07-31T00:57:10.565Z,1.65
2022-07-31T00:58:13.751Z,1.63
2022-07-31T00:59:16.625Z,1.55
2022-07-31T01:00:21.248Z,1.41
2022-07-31T01:01:24.136Z,1.58
2022-07-31T01:02:26.884Z,1.75
2022-07-31T01:03:29.766Z,1.55
2022-07-31T01:04:32.426Z,1.48
2022-07-31T01:05:35.303Z,1.60
2022-07-31T01:06:42.497Z,1.62
2022-07-31T01:07:42.385Z,1.91
2022-07-31T01:08:45.049Z,1.61
2022-07-31T01:09:47.925Z,1.55
2022-07-31T01:10:50.799Z,1.50
2022-07-31T01:11:53.679Z,1.52
2022-07-31T01:12:56.657Z,1.52
2022-07-31T01:13:59.319Z,1.34
2022-07-31T01:15:02.202Z,1.42
2022-07-31T01:16:04.970Z,1.62
2022-07-31T01:17:07.753Z,1.80
2022-07-31T01:18:10.566Z,1.52
2022-07-31T01:19:14.518Z,1.59
2022-07-31T01:20:17.195Z,1.49
2022-07-31T01:21:20.058Z,1.68
2022-07-31T01:22:33.948Z,1.68
2022-07-31T01:23:27.263Z,1.42
2022-07-31T01:24:30.020Z,1.52
2022-07-31T01:25:32.790Z,1.54
2022-07-31T01:26:35.567Z,1.62
2022-07-31T01:27:49.437Z,1.52
2022-07-31T01:28:42.755Z,1.47
2022-07-31T01:29:45.620Z,1.58
2022-07-31T01:30:52.955Z,1.37
2022-07-31T01:31:52.801Z,1.35
2022-07-31T01:32:55.576Z,1.30
2022-07-31T01:33:58.242Z,1.43
2022-07-31T01:35:01.013Z,1.62
2022-07-31T01:36:03.785Z,1.55
2022-07-31T01:37:06.836Z,1.57
2022-07-31T01:38:10.881Z,1.57
2022-07-31T01:39:13.748Z,1.59
2022-07-31T01:40:16.620Z,1.42
2022-07-31T01:41:19.286Z,1.42
2022-07-31T01:42:22.052Z,1.37
2022-07-31T01:43:25.144Z,1.59
2022-07-31T01:44:27.910Z,1.58
2022-07-31T01:45:30.952Z,1.45
2022-07-31T01:46:37.316Z,1.59
2022-07-31T01:47:38.386Z,1.46
2022-07-31T01:48:41.358Z,1.48
2022-07-31T01:49:44.164Z,1.64
2022-07-31T01:50:47.215Z,1.80
2022-07-31T01:51:50.183Z,1.34
2022-07-31T01:52:54.695Z,1.33
2022-07-31T01:53:57.484Z,1.39
2022-07-31T01:55:00.584Z,1.47
2022-07-31T01:56:04.424Z,1.40
2022-07-31T01:57:07.523Z,1.68
2022-07-31T01:58:10.706Z,1.64
2022-07-31T01:59:20.377Z,1.93
2022-07-31T02:00:33.320Z,1.66
2022-07-31T02:01:26.963Z,1.63
2022-07-31T02:02:27.119Z,1.73
2022-07-31T02:03:44.278Z,1.51
2022-07-31T02:04:34.406Z,1.54
2022-07-31T02:05:37.592Z,1.69
2022-07-31T02:06:40.464Z,1.59
2022-07-31T02:07:43.131Z,1.55
2022-07-31T02:08:45.926Z,1.66
2022-07-31T02:09:52.493Z,1.69
2022-07-31T02:10:52.993Z,1.72
2022-07-31T02:11:55.654Z,1.62
2022-07-31T02:12:58.325Z,1.68
2022-07-31T02:14:00.991Z,1.62
2022-07-31T02:15:03.779Z,1.75
2022-07-31T02:16:06.742Z,1.61
2022-07-31T02:17:09.519Z,1.78
2022-07-31T02:18:12.386Z,1.98
2022-07-31T02:19:15.157Z,1.48
2022-07-31T02:20:17.933Z,1.64
2022-07-31T02:21:20.807Z,1.55
2022-07-31T02:22:24.103Z,1.52
2022-07-31T02:23:28.194Z,1.53
2022-07-31T02:24:30.966Z,1.41
2022-07-31T02:25:33.742Z,1.81
2022-07-31T02:26:36.414Z,1.58
2022-07-31T02:27:53.648Z,1.68
2022-07-31T02:28:43.800Z,1.57
2022-07-31T02:29:46.485Z,1.40
2022-07-31T02:30:49.551Z,1.58
2022-07-31T02:32:02.838Z,1.63
2022-07-31T02:32:56.939Z,1.69
2022-07-31T02:33:59.810Z,1.59
2022-07-31T02:35:02.585Z,1.70
2022-07-31T02:36:05.373Z,1.66
2022-07-31T02:37:08.122Z,1.47
2022-07-31T02:38:17.197Z,1.74
2022-07-31T02:39:15.103Z,1.76
2022-07-31T02:40:17.879Z,1.78
2022-07-31T02:41:20.651Z,2.01
2022-07-31T02:42:23.542Z,1.88
2022-07-31T02:43:26.502Z,1.67
2022-07-31T02:44:29.165Z,1.52
2022-07-31T02:45:31.945Z,1.69
2022-07-31T02:46:34.724Z,1.88
2022-07-31T02:47:37.799Z,1.55
2022-07-31T02:48:40.472Z,1.92
2022-07-31T02:49:43.256Z,1.68
2022-07-31T02:50:45.903Z,1.73
2022-07-31T02:51:48.787Z,1.61
2022-07-31T02:52:52.579Z,1.85
2022-07-31T02:53:55.563Z,1.69
2022-07-31T02:54:58.429Z,1.85
2022-07-31T02:56:01.507Z,1.74
2022-07-31T02:57:04.917Z,1.45
2022-07-31T02:58:08.075Z,1.94
2022-07-31T02:59:11.051Z,1.76
2022-07-31T03:00:14.133Z,1.55
2022-07-31T03:01:17.310Z,1.74
2022-07-31T03:02:20.185Z,1.66
2022-07-31T03:03:23.265Z,1.84
2022-07-31T03:04:26.348Z,1.72
2022-07-31T03:05:29.537Z,1.65
2022-07-31T03:06:32.350Z,1.69
2022-07-31T03:07:35.079Z,1.75
2022-07-31T03:08:38.048Z,1.79
2022-07-31T03:09:40.719Z,1.66
2022-07-31T03:10:43.388Z,1.85
2022-07-31T03:11:46.265Z,2.15
2022-07-31T03:12:49.039Z,1.98
2022-07-31T03:13:51.712Z,1.93
2022-07-31T03:14:54.472Z,1.90
2022-07-31T03:15:57.356Z,1.51
2022-07-31T03:17:00.141Z,1.70
2022-07-31T03:18:11.173Z,1.62
2022-07-31T03:19:08.019Z,1.61
2022-07-31T03:20:11.111Z,1.78
2022-07-31T03:21:14.078Z,1.75
2022-07-31T03:22:16.775Z,1.71
2022-07-31T03:23:19.625Z,1.69
2022-07-31T03:24:22.704Z,1.72
2022-07-31T03:25:25.889Z,1.65
2022-07-31T03:26:28.552Z,1.70
2022-07-31T03:27:31.645Z,1.67
2022-07-31T03:28:34.516Z,1.53
2022-07-31T03:29:42.939Z,1.59
2022-07-31T03:30:42.205Z,1.60
2022-07-31T03:31:44.984Z,1.77
2022-07-31T03:32:47.748Z,1.60
2022-07-31T03:33:50.843Z,1.69
2022-07-31T03:34:53.928Z,1.67
2022-07-31T03:35:56.881Z,1.79
2022-07-31T03:36:59.968Z,1.64
2022-07-31T03:38:02.942Z,1.62
2022-07-31T03:39:07.461Z,1.81
2022-07-31T03:40:10.539Z,1.65
2022-07-31T03:41:13.509Z,2.02
2022-07-31T03:42:19.257Z,1.98
2022-07-31T03:43:20.905Z,1.72
2022-07-31T03:44:23.777Z,1.82
2022-07-31T03:45:26.858Z,1.60
2022-07-31T03:46:29.520Z,1.45
2022-07-31T03:47:32.603Z,1.66
2022-07-31T03:48:35.477Z,1.61
2022-07-31T03:49:39.149Z,1.41
2022-07-31T03:50:42.040Z,1.68
2022-07-31T03:51:44.713Z,1.84
2022-07-31T03:52:47.590Z,1.48
2022-07-31T03:53:50.582Z,1.75
2022-07-31T03:54:53.631Z,1.90
2022-07-31T03:55:56.419Z,1.34
2022-07-31T03:56:59.188Z,1.44
2022-07-31T03:58:02.066Z,1.48
2022-07-31T03:59:04.939Z,1.82
2022-07-31T04:00:16.435Z,1.65
2022-07-31T04:01:12.436Z,1.56
2022-07-31T04:02:15.466Z,1.54
2022-07-31T04:03:19.517Z,1.56
2022-07-31T04:04:22.280Z,1.53
2022-07-31T04:05:25.162Z,1.42
2022-07-31T04:06:27.930Z,1.69
2022-07-31T04:07:30.618Z,1.72
2022-07-31T04:08:33.384Z,1.68
2022-07-31T04:09:36.252Z,1.62
2022-07-31T04:10:38.917Z,1.72
2022-07-31T04:11:41.590Z,1.77
2022-07-31T04:12:44.465Z,1.72
2022-07-31T04:13:47.438Z,1.70
2022-07-31T04:14:50.215Z,1.45
2022-07-31T04:15:52.897Z,1.53
2022-07-31T04:16:55.969Z,1.52
2022-07-31T04:17:58.943Z,1.45
2022-07-31T04:19:01.808Z,1.58
2022-07-31T04:20:05.702Z,1.57
2022-07-31T04:21:08.899Z,1.58
2022-07-31T04:22:11.868Z,1.46
2022-07-31T04:23:14.747Z,1.50
2022-07-31T04:24:17.719Z,1.74
2022-07-31T04:25:20.795Z,1.81
2022-07-31T04:26:26.066Z,1.62
2022-07-31T04:27:28.311Z,1.71
2022-07-31T04:28:31.062Z,1.79
2022-07-31T04:29:34.040Z,1.56
2022-07-31T04:30:36.812Z,1.52
2022-07-31T04:31:39.585Z,1.57
2022-07-31T04:32:42.350Z,1.43
2022-07-31T04:33:48.767Z,1.73
2022-07-31T04:34:50.158Z,1.57
2022-07-31T04:35:53.230Z,1.70
2022-07-31T04:36:56.407Z,1.55
2022-07-31T04:37:59.184Z,1.75
2022-07-31T04:39:02.182Z,1.58
2022-07-31T04:40:05.148Z,1.65
2022-07-31T04:41:09.651Z,1.58
2022-07-31T04:42:12.886Z,1.43
2022-07-31T04:43:16.429Z,1.82
2022-07-31T04:44:19.409Z,1.55
2022-07-31T04:45:22.380Z,1.69
2022-07-31T04:46:25.158Z,1.52
2022-07-31T04:47:28.437Z,1.84
2022-07-31T04:48:31.223Z,1.88
2022-07-31T04:49:34.239Z,1.48
2022-07-31T04:50:37.072Z,1.58
2022-07-31T04:51:40.238Z,1.73
2022-07-31T04:52:43.121Z,1.82
2022-07-31T04:53:45.785Z,1.58
2022-07-31T04:54:48.565Z,2.07
2022-07-31T04:55:51.441Z,1.71
2022-07-31T04:56:54.212Z,1.61
2022-07-31T04:57:57.079Z,1.68
2022-07-31T04:58:59.746Z,1.74
2022-07-31T05:00:02.411Z,1.67
2022-07-31T05:01:05.403Z,1.46
2022-07-31T05:02:08.547Z,1.48
2022-07-31T05:03:12.166Z,1.62
2022-07-31T05:04:15.042Z,1.44
2022-07-31T05:05:17.818Z,1.61
2022-07-31T05:06:20.695Z,1.48
2022-07-31T05:07:23.563Z,1.47
2022-07-31T05:08:28.197Z,1.80
2022-07-31T05:09:30.953Z,1.45
2022-07-31T05:10:34.449Z,1.74
2022-07-31T05:11:37.211Z,1.82
2022-07-31T05:12:39.982Z,1.55
2022-07-31T05:13:42.968Z,1.57
2022-07-31T05:14:45.846Z,1.66
2022-07-31T05:15:48.911Z,1.55
2022-07-31T05:16:51.688Z,1.62
2022-07-31T05:17:54.562Z,1.58
2022-07-31T05:18:58.873Z,1.49
2022-07-31T05:20:01.655Z,1.62
2022-07-31T05:21:04.323Z,1.74
2022-07-31T05:22:07.695Z,1.72
2022-07-31T05:23:10.778Z,1.51
2022-07-31T05:24:13.652Z,1.55
2022-07-31T05:25:16.630Z,1.52
2022-07-31T05:26:19.713Z,1.70
2022-07-31T05:27:22.690Z,1.62
2022-07-31T05:28:29.640Z,1.52
2022-07-31T05:29:30.484Z,1.58
2022-07-31T05:30:33.567Z,1.84
2022-07-31T05:31:36.539Z,1.62
2022-07-31T05:32:39.314Z,1.60
2022-07-31T05:33:42.194Z,1.76
2022-07-31T05:34:45.068Z,1.58
2022-07-31T05:35:47.836Z,1.70
2022-07-31T05:36:51.736Z,1.65
2022-07-31T05:37:55.330Z,1.61
2022-07-31T05:38:58.418Z,1.82
2022-07-31T05:40:01.378Z,1.77
2022-07-31T05:41:04.362Z,1.41
2022-07-31T05:42:07.736Z,1.65
2022-07-31T05:43:10.851Z,1.68
2022-07-31T05:44:13.702Z,1.64
2022-07-31T05:45:16.779Z,1.72
2022-07-31T05:46:19.663Z,1.75
2022-07-31T05:47:22.629Z,1.63
2022-07-31T05:48:25.604Z,1.57
2022-07-31T05:49:28.642Z,1.71
2022-07-31T05:50:31.464Z,1.90
2022-07-31T05:51:34.539Z,1.63
2022-07-31T05:52:37.616Z,1.71
2022-07-31T05:53:40.498Z,1.68
2022-07-31T05:54:44.804Z,1.87
2022-07-31T05:55:47.569Z,1.71
2022-07-31T05:56:50.362Z,1.61
2022-07-31T05:57:53.045Z,1.76
2022-07-31T05:58:55.807Z,1.60
2022-07-31T05:59:58.460Z,1.66
2022-07-31T06:01:02.268Z,1.92
2022-07-31T06:02:05.299Z,1.78
2022-07-31T06:03:08.212Z,1.88
2022-07-31T06:04:10.884Z,1.65
2022-07-31T06:05:13.555Z,1.53
2022-07-31T06:06:16.993Z,1.88
2022-07-31T06:07:20.119Z,1.91
2022-07-31T06:08:22.984Z,1.39
2022-07-31T06:09:25.967Z,1.56
2022-07-31T06:10:28.846Z,1.82
2022-07-31T06:11:31.709Z,1.99
2022-07-31T06:12:34.386Z,1.83
2022-07-31T06:13:37.362Z,1.60
2022-07-31T06:14:40.233Z,1.79
2022-07-31T06:15:49.446Z,1.82
2022-07-31T06:16:47.521Z,1.54
2022-07-31T06:17:50.304Z,1.62
2022-07-31T06:18:54.807Z,1.58
2022-07-31T06:19:57.882Z,1.46
2022-07-31T06:21:00.761Z,1.62
2022-07-31T06:22:03.920Z,1.82
2022-07-31T06:23:14.686Z,1.45
2022-07-31T06:24:11.848Z,1.63
2022-07-31T06:25:16.150Z,1.82
2022-07-31T06:26:19.126Z,2.06
2022-07-31T06:27:33.621Z,1.55
2022-07-31T06:28:38.847Z,1.61
2022-07-31T06:29:40.777Z,1.73
2022-07-31T06:30:37.287Z,1.83
2022-07-31T06:31:40.374Z,1.72
2022-07-31T06:32:43.139Z,1.90
2022-07-31T06:33:48.004Z,1.76
2022-07-31T06:34:50.219Z,1.91
2022-07-31T06:35:53.088Z,1.77
2022-07-31T06:36:55.864Z,1.71
2022-07-31T06:37:58.948Z,1.53
2022-07-31T06:39:02.023Z,1.64
2022-07-31T06:40:04.691Z,1.65
2022-07-31T06:41:07.665Z,1.98
2022-07-31T06:42:10.538Z,1.89
2022-07-31T06:43:13.313Z,1.94
2022-07-31T06:44:16.290Z,2.14
2022-07-31T06:45:35.712Z,1.98
2022-07-31T06:46:23.578Z,1.82
2022-07-31T06:47:26.677Z,1.73
2022-07-31T06:48:29.534Z,1.98
2022-07-31T06:49:32.338Z,1.76
2022-07-31T06:50:35.076Z,2.12
2022-07-31T06:51:37.842Z,1.77
2022-07-31T06:52:40.617Z,1.80
2022-07-31T06:53:43.491Z,1.99
2022-07-31T06:54:46.371Z,2.01
2022-07-31T06:55:49.241Z,1.96
2022-07-31T06:56:52.013Z,1.88
2022-07-31T06:57:54.793Z,2.12
2022-07-31T06:58:57.485Z,2.00
2022-07-31T07:00:03.135Z,2.20
2022-07-31T07:01:04.519Z,1.69
2022-07-31T07:03:21.652Z,1.78
2022-07-31T07:04:24.743Z,1.44
2022-07-31T07:05:29.456Z,1.90
2022-07-31T07:06:32.217Z,1.86
2022-07-31T07:07:35.610Z,1.95
2022-07-31T07:08:38.590Z,1.87
2022-07-31T07:09:41.767Z,1.92
2022-07-31T07:10:44.638Z,2.25
2022-07-31T07:11:50.683Z,1.96
2022-07-31T07:12:51.833Z,1.83
2022-07-31T07:13:56.128Z,2.11
2022-07-31T07:14:59.013Z,1.98
2022-07-31T07:16:01.678Z,1.95
2022-07-31T07:17:04.552Z,2.14
2022-07-31T07:18:07.575Z,1.88
2022-07-31T07:19:10.709Z,1.81
2022-07-31T07:20:13.586Z,1.91
2022-07-31T07:21:16.458Z,2.02
2022-07-31T07:22:19.125Z,2.02
2022-07-31T07:23:23.435Z,2.26
2022-07-31T07:24:26.307Z,1.98
2022-07-31T07:25:28.976Z,2.18
2022-07-31T07:26:31.956Z,2.22
2022-07-31T07:27:34.744Z,2.02
2022-07-31T07:28:37.404Z,2.08
2022-07-31T07:29:40.179Z,2.13
2022-07-31T07:30:44.680Z,2.36
2022-07-31T07:31:47.565Z,2.25
2022-07-31T07:32:50.433Z,2.59
2022-07-31T07:33:53.203Z,2.42
2022-07-31T07:34:59.461Z,2.33
2022-07-31T07:36:00.498Z,2.59
2022-07-31T07:37:03.470Z,2.25
2022-07-31T07:38:06.243Z,2.08
2022-07-31T07:39:10.657Z,2.21
2022-07-31T07:40:13.424Z,2.04
2022-07-31T07:41:18.504Z,2.13
2022-07-31T07:42:20.604Z,2.48
2022-07-31T07:43:23.382Z,2.34
2022-07-31T07:44:26.048Z,2.52
2022-07-31T07:45:28.931Z,2.30
2022-07-31T07:46:31.597Z,2.37
2022-07-31T07:47:54.118Z,2.44
2022-07-31T07:48:38.874Z,2.24
2022-07-31T07:49:41.759Z,2.39
2022-07-31T07:50:44.420Z,2.28
2022-07-31T07:51:59.479Z,2.41
2022-07-31T07:52:51.506Z,2.21
2022-07-31T07:53:54.374Z,1.99
2022-07-31T07:54:57.354Z,2.35
2022-07-31T07:56:00.340Z,2.66
2022-07-31T07:57:03.206Z,2.86
2022-07-31T07:58:10.094Z,3.01
2022-07-31T07:59:14.973Z,3.14
2022-07-31T08:00:15.209Z,3.38
2022-07-31T08:01:18.359Z,4.05
2022-07-31T08:02:21.670Z,3.92
2022-07-31T08:03:49.953Z,4.35
2022-07-31T08:04:29.164Z,4.38
2022-07-31T08:05:32.140Z,3.92
2022-07-31T08:06:34.913Z,3.82
2022-07-31T08:07:42.585Z,3.04
2022-07-31T08:08:42.198Z,2.73
2022-07-31T08:09:44.968Z,2.88
2022-07-31T08:10:47.645Z,2.77
2022-07-31T08:11:50.310Z,2.47
2022-07-31T08:12:53.288Z,2.98
2022-07-31T08:13:56.157Z,3.09
2022-07-31T08:14:59.140Z,4.05
2022-07-31T08:16:04.777Z,4.52
2022-07-31T08:17:07.959Z,4.71
2022-07-31T08:18:12.472Z,4.26
2022-07-31T08:19:15.454Z,3.81
2022-07-31T08:20:18.326Z,3.03
2022-07-31T08:21:21.103Z,3.77
2022-07-31T08:22:23.772Z,3.77
2022-07-31T08:23:26.441Z,3.98
2022-07-31T08:24:29.207Z,3.75
2022-07-31T08:25:32.289Z,3.87
2022-07-31T08:26:35.067Z,4.04
2022-07-31T08:27:40.307Z,4.15
2022-07-31T08:28:50.084Z,3.92
2022-07-31T08:29:46.661Z,3.78
2022-07-31T08:30:50.960Z,3.83
2022-07-31T08:31:53.740Z,3.75
2022-07-31T08:32:56.710Z,3.78
2022-07-31T08:33:59.691Z,3.79
2022-07-31T08:35:02.464Z,3.89
2022-07-31T08:36:05.540Z,3.78
2022-07-31T08:37:51.743Z,3.85
2022-07-31T08:38:12.622Z,3.90
2022-07-31T08:39:21.205Z,4.33
2022-07-31T08:40:20.112Z,3.92
2022-07-31T08:41:23.298Z,4.00
2022-07-31T08:42:26.271Z,5.02
2022-07-31T08:44:02.868Z,6.39
2022-07-31T08:44:33.552Z,7.08
2022-07-31T08:45:40.275Z,6.44
2022-07-31T08:46:40.847Z,6.10
2022-07-31T08:47:43.612Z,5.08
2022-07-31T08:48:46.444Z,3.96
2022-07-31T08:49:49.155Z,3.45
2022-07-31T08:50:53.866Z,3.87
2022-07-31T08:51:56.339Z,3.85
2022-07-31T08:52:59.213Z,3.39
2022-07-31T08:54:01.990Z,3.70
2022-07-31T08:55:07.947Z,3.29
2022-07-31T08:56:10.613Z,3.37
2022-07-31T08:57:13.578Z,3.24
2022-07-31T08:58:16.457Z,3.05
2022-07-31T08:59:19.119Z,3.10
2022-07-31T09:00:22.054Z,3.59
2022-07-31T09:01:24.880Z,3.52
2022-07-31T09:02:27.646Z,3.02
2022-07-31T09:03:30.415Z,3.08
2022-07-31T09:04:33.194Z,3.32
2022-07-31T09:05:41.769Z,2.95
2022-07-31T09:06:40.166Z,3.16
2022-07-31T09:07:42.938Z,3.40
2022-07-31T09:08:45.712Z,3.49
2022-07-31T09:09:52.194Z,2.96
2022-07-31T09:10:52.790Z,2.91
2022-07-31T09:11:55.562Z,2.83
2022-07-31T09:12:58.236Z,3.05
2022-07-31T09:14:02.754Z,2.95
2022-07-31T09:15:05.209Z,2.89
2022-07-31T09:16:08.087Z,2.98
2022-07-31T09:17:10.754Z,2.68
2022-07-31T09:18:13.633Z,2.79
2022-07-31T09:19:51.243Z,3.07
2022-07-31T09:20:20.708Z,3.12
2022-07-31T09:21:23.383Z,3.55
2022-07-31T09:22:26.153Z,3.35
2022-07-31T09:23:28.929Z,3.53
2022-07-31T09:24:31.590Z,3.26
2022-07-31T09:25:35.899Z,3.23
2022-07-31T09:26:38.777Z,3.42
2022-07-31T09:27:41.650Z,3.35
2022-07-31T09:28:44.424Z,3.22
2022-07-31T09:29:47.295Z,3.31
2022-07-31T09:30:56.230Z,3.21
2022-07-31T09:31:54.496Z,3.07
2022-07-31T09:32:57.415Z,3.17
2022-07-31T09:34:00.329Z,3.22
2022-07-31T09:35:03.311Z,3.12
2022-07-31T09:36:06.608Z,3.34
2022-07-31T09:37:09.506Z,3.20
2022-07-31T09:38:12.549Z,2.98
2022-07-31T09:39:26.777Z,3.20
2022-07-31T09:40:21.050Z,2.80
2022-07-31T09:41:56.332Z,3.19
2022-07-31T09:42:28.563Z,2.79
2022-07-31T09:43:31.917Z,2.56
2022-07-31T09:44:35.223Z,2.54
2022-07-31T09:45:47.936Z,2.56
2022-07-31T09:46:42.608Z,2.75
2022-07-31T09:47:45.692Z,2.73
2022-07-31T09:48:48.484Z,2.76
2022-07-31T09:49:51.131Z,2.78
2022-07-31T09:50:53.900Z,2.42
2022-07-31T09:51:56.882Z,2.68
2022-07-31T09:52:59.756Z,2.57
2022-07-31T09:54:02.633Z,2.56
2022-07-31T09:55:15.607Z,2.77
2022-07-31T09:56:10.116Z,2.67
2022-07-31T09:57:13.199Z,2.66
2022-07-31T09:58:16.176Z,2.56
2022-07-31T09:59:19.058Z,2.41
2022-07-31T10:00:22.040Z,2.76
2022-07-31T10:01:25.172Z,2.74
2022-07-31T10:02:28.301Z,2.81
2022-07-31T10:03:32.316Z,2.64
2022-07-31T10:04:34.963Z,2.68
2022-07-31T10:05:37.933Z,2.72
2022-07-31T10:06:40.713Z,2.73
2022-07-31T10:07:43.379Z,2.48
2022-07-31T10:08:46.147Z,2.34
2022-07-31T10:09:49.023Z,2.52
2022-07-31T10:10:51.802Z,2.38
2022-07-31T10:11:54.477Z,2.25
2022-07-31T10:12:57.444Z,2.48
2022-07-31T10:14:00.323Z,2.55
2022-07-31T10:15:03.294Z,2.50
2022-07-31T10:16:06.274Z,2.14
2022-07-31T10:17:09.152Z,2.32
2022-07-31T10:18:12.017Z,2.66
2022-07-31T10:19:14.791Z,2.80
2022-07-31T10:20:17.564Z,2.68
2022-07-31T10:21:20.334Z,2.39
2022-07-31T10:22:23.104Z,2.36
2022-07-31T10:23:25.878Z,2.58
2022-07-31T10:24:28.750Z,3.11
2022-07-31T10:25:31.424Z,3.10
2022-07-31T10:26:59.065Z,2.61
2022-07-31T10:27:39.584Z,2.49
2022-07-31T10:28:42.615Z,2.69
2022-07-31T10:29:45.286Z,2.62
2022-07-31T10:30:48.054Z,2.62
2022-07-31T10:31:50.839Z,2.90
2022-07-31T10:32:53.513Z,2.59
2022-07-31T10:33:56.266Z,2.47
2022-07-31T10:34:59.142Z,2.88
2022-07-31T10:36:02.123Z,2.58
2022-07-31T10:37:05.038Z,2.70
2022-07-31T10:38:09.095Z,2.72
2022-07-31T10:39:11.865Z,2.62
2022-07-31T10:40:14.639Z,2.63
2022-07-31T10:41:17.542Z,2.63
2022-07-31T10:42:20.186Z,2.71
2022-07-31T10:43:22.960Z,2.82
2022-07-31T10:44:25.731Z,2.74
2022-07-31T10:45:28.402Z,2.53
2022-07-31T10:46:31.087Z,2.67
2022-07-31T10:47:34.072Z,2.62
2022-07-31T10:48:36.824Z,2.80
2022-07-31T10:49:40.073Z,2.73
2022-07-31T10:50:42.876Z,2.64
2022-07-31T10:51:45.774Z,2.67
2022-07-31T10:52:48.423Z,2.38
2022-07-31T10:53:55.224Z,2.30
2022-07-31T10:54:55.398Z,2.74
2022-07-31T10:55:58.166Z,2.79
2022-07-31T10:57:01.480Z,2.51
2022-07-31T10:58:04.225Z,2.66
2022-07-31T10:59:07.201Z,2.62
2022-07-31T11:00:11.714Z,2.64
2022-07-31T11:01:17.620Z,2.58
2022-07-31T11:02:19.098Z,2.72
2022-07-31T11:03:22.107Z,2.48
2022-07-31T11:04:25.059Z,2.46
2022-07-31T11:05:28.302Z,2.72
2022-07-31T11:06:31.425Z,2.88
2022-07-31T11:07:34.506Z,2.59
2022-07-31T11:08:37.168Z,2.49
2022-07-31T11:09:50.528Z,2.77
2022-07-31T11:10:44.354Z,2.49
2022-07-31T11:11:47.136Z,2.60
2022-07-31T11:12:49.799Z,2.59
2022-07-31T11:13:52.567Z,2.59
2022-07-31T11:14:55.284Z,2.67
2022-07-31T11:15:58.252Z,2.61
2022-07-31T11:17:03.147Z,2.64
2022-07-31T11:18:22.776Z,2.56
2022-07-31T11:19:10.527Z,2.65
2022-07-31T11:20:13.219Z,2.66
2022-07-31T11:21:37.715Z,2.52
2022-07-31T11:22:31.291Z,2.53
2022-07-31T11:23:24.382Z,2.92
2022-07-31T11:24:27.252Z,2.96
2022-07-31T11:25:30.024Z,2.84
2022-07-31T11:26:41.262Z,3.15
2022-07-31T11:27:37.309Z,3.26
2022-07-31T11:28:40.089Z,3.48
2022-07-31T11:30:02.079Z,3.36
2022-07-31T11:30:47.260Z,3.15
2022-07-31T11:31:50.039Z,2.95
2022-07-31T11:32:52.808Z,3.10
2022-07-31T11:33:55.485Z,3.24
2022-07-31T11:34:59.990Z,3.10
2022-07-31T11:36:02.969Z,2.77
2022-07-31T11:37:06.198Z,3.00
2022-07-31T11:38:09.638Z,2.85
2022-07-31T11:39:12.820Z,2.66
2022-07-31T11:40:17.693Z,2.61
2022-07-31T11:41:22.289Z,2.49
2022-07-31T11:42:27.670Z,2.39
2022-07-31T11:43:29.256Z,2.45
2022-07-31T11:44:32.016Z,2.55
2022-07-31T11:45:34.675Z,2.49
2022-07-31T11:46:37.347Z,2.17
2022-07-31T11:48:11.531Z,2.29
2022-07-31T11:48:45.731Z,2.42
2022-07-31T11:49:49.477Z,2.25
2022-07-31T11:50:52.530Z,2.19
2022-07-31T11:51:55.299Z,2.43
2022-07-31T11:52:58.074Z,2.44
2022-07-31T11:54:00.853Z,2.13
2022-07-31T11:55:08.571Z,2.22
2022-07-31T11:56:07.831Z,2.17
2022-07-31T11:57:10.502Z,2.22
2022-07-31T11:58:13.166Z,2.18
2022-07-31T11:59:45.631Z,2.55
2022-07-31T12:00:26.821Z,2.28
2022-07-31T12:01:24.668Z,2.42
2022-07-31T12:02:27.610Z,2.48
2022-07-31T12:03:30.307Z,2.34
2022-07-31T12:04:33.079Z,2.35
2022-07-31T12:05:38.770Z,2.19
2022-07-31T12:06:40.257Z,2.15
2022-07-31T12:07:43.762Z,2.46
2022-07-31T12:08:46.410Z,2.40
2022-07-31T12:10:00.770Z,2.20
2022-07-31T12:10:53.501Z,1.96
2022-07-31T12:11:56.176Z,2.00
2022-07-31T12:12:59.045Z,2.23
2022-07-31T12:14:02.013Z,2.12
2022-07-31T12:15:04.990Z,2.24
2022-07-31T12:16:07.977Z,2.19
2022-07-31T12:17:10.957Z,2.05
2022-07-31T12:18:15.458Z,2.26
2022-07-31T12:19:18.551Z,2.16
2022-07-31T12:20:34.479Z,2.08
2022-07-31T12:21:25.938Z,2.16
2022-07-31T12:22:28.904Z,2.30
2022-07-31T12:23:38.711Z,2.29
2022-07-31T12:24:36.296Z,2.28
2022-07-31T12:25:39.063Z,2.18
2022-07-31T12:26:41.939Z,2.27
2022-07-31T12:27:44.921Z,2.25
2022-07-31T12:28:47.797Z,2.41
2022-07-31T12:29:50.462Z,2.22
2022-07-31T12:30:53.335Z,2.51
2022-07-31T12:31:56.007Z,2.38
2022-07-31T12:32:58.680Z,2.17
2022-07-31T12:34:01.349Z,2.14
2022-07-31T12:35:04.332Z,2.40
2022-07-31T12:36:07.520Z,2.37
2022-07-31T12:37:11.201Z,2.43
2022-07-31T12:38:37.922Z,2.29
2022-07-31T12:39:18.586Z,2.11
2022-07-31T12:40:21.462Z,2.20
2022-07-31T12:41:24.445Z,2.23
2022-07-31T12:42:30.410Z,2.41
2022-07-31T12:43:32.025Z,2.33
2022-07-31T12:44:35.008Z,2.20
2022-07-31T12:45:37.883Z,2.49
2022-07-31T12:46:40.549Z,2.31
2022-07-31T12:47:43.424Z,2.20
2022-07-31T12:48:47.826Z,2.49
2022-07-31T12:49:50.510Z,2.31
2022-07-31T12:50:53.586Z,2.08
2022-07-31T12:51:56.251Z,2.24
2022-07-31T12:52:59.226Z,2.27
2022-07-31T12:54:02.107Z,2.48
2022-07-31T12:55:06.625Z,2.08
2022-07-31T12:56:09.491Z,2.27
2022-07-31T12:57:12.277Z,2.25
2022-07-31T12:58:15.148Z,2.35
2022-07-31T12:59:18.013Z,2.37
2022-07-31T13:00:20.991Z,2.29
2022-07-31T13:01:23.917Z,2.30
2022-07-31T13:02:26.885Z,2.35
2022-07-31T13:03:45.473Z,2.38
2022-07-31T13:04:34.342Z,2.27
2022-07-31T13:05:37.310Z,2.36
2022-07-31T13:06:40.086Z,2.16
2022-07-31T13:07:42.959Z,2.20
2022-07-31T13:08:45.623Z,2.06
2022-07-31T13:10:20.818Z,2.17
2022-07-31T13:10:52.808Z,2.17
2022-07-31T13:11:57.899Z,2.15
2022-07-31T13:13:00.200Z,2.07
2022-07-31T13:14:03.067Z,2.03
2022-07-31T13:15:06.055Z,2.04
2022-07-31T13:16:08.927Z,2.08
2022-07-31T13:17:11.798Z,2.05
2022-07-31T13:18:14.781Z,2.18
2022-07-31T13:19:17.750Z,2.08
2022-07-31T13:20:21.041Z,2.23
2022-07-31T13:21:24.328Z,2.33
2022-07-31T13:22:27.297Z,2.29
2022-07-31T13:23:30.171Z,2.32
2022-07-31T13:24:33.263Z,2.27
2022-07-31T13:25:36.122Z,2.18
2022-07-31T13:26:42.892Z,2.00
2022-07-31T13:27:43.412Z,2.29
2022-07-31T13:28:46.076Z,1.96
2022-07-31T13:29:48.849Z,2.33
2022-07-31T13:30:55.036Z,2.12
2022-07-31T13:31:55.830Z,2.17
2022-07-31T13:32:58.601Z,2.25
2022-07-31T13:34:01.371Z,2.22
2022-07-31T13:35:27.065Z,2.33
2022-07-31T13:36:08.554Z,2.43
2022-07-31T13:37:11.330Z,2.01
2022-07-31T13:38:14.105Z,2.15
2022-07-31T13:39:16.791Z,2.30
2022-07-31T13:40:19.439Z,2.29
2022-07-31T13:41:22.314Z,2.02
2022-07-31T13:42:29.246Z,2.58
2022-07-31T13:43:29.294Z,2.39
2022-07-31T13:44:32.374Z,2.29
2022-07-31T13:45:35.269Z,2.22
2022-07-31T13:46:38.027Z,2.02
2022-07-31T13:47:50.637Z,2.13
2022-07-31T13:48:45.433Z,2.04
2022-07-31T13:49:48.282Z,2.32
2022-07-31T13:50:51.154Z,2.32
2022-07-31T13:51:53.724Z,2.41
2022-07-31T13:52:56.597Z,2.43
2022-07-31T13:53:59.680Z,2.42
2022-07-31T13:55:02.616Z,2.35
2022-07-31T13:56:05.525Z,2.44
2022-07-31T13:57:08.811Z,2.30
2022-07-31T13:58:11.787Z,2.42
2022-07-31T13:59:14.777Z,2.28
2022-07-31T14:00:18.083Z,2.21
2022-07-31T14:01:20.644Z,2.17